createdAt,value
2023-08-15T00:01:48.235Z,5.37
2023-08-15T00:04:14.893Z,5.10
2023-08-15T00:06:41.604Z,4.77
2023-08-15T00:09:08.281Z,4.70
2023-08-15T00:11:34.979Z,4.60
2023-08-15T00:14:01.748Z,5.30
2023-08-15T00:16:28.534Z,4.80
2023-08-15T00:18:55.347Z,4.33
2023-08-15T00:21:22.048Z,4.90
2023-08-15T00:23:48.795Z,4.93
2023-08-15T00:26:15.550Z,4.97
2023-08-15T00:28:42.256Z,5.00
2023-08-15T00:31:09.063Z,4.57
2023-08-15T00:33:35.859Z,4.83
2023-08-15T00:36:05.187Z,5.83
2023-08-15T00:38:31.905Z,4.20
2023-08-15T00:40:58.596Z,5.07
2023-08-15T00:43:25.377Z,5.30
2023-08-15T00:45:52.145Z,4.60
2023-08-15T00:48:19.531Z,4.43
2023-08-15T00:50:50.787Z,4.43
2023-08-15T00:53:19.224Z,4.93
2023-08-15T00:55:46.902Z,4.90
2023-08-15T00:58:13.872Z,5.40
2023-08-15T01:00:41.633Z,4.73
2023-08-15T01:03:08.729Z,5.23
2023-08-15T01:05:36.433Z,5.20
2023-08-15T01:08:03.790Z,5.23
2023-08-15T01:10:30.607Z,4.43
2023-08-15T01:13:26.863Z,4.40
2023-08-15T01:15:54.015Z,4.70
2023-08-15T01:18:31.434Z,4.93
2023-08-15T01:20:59.369Z,5.03
2023-08-15T01:23:37.370Z,5.60
2023-08-15T01:26:04.077Z,4.87
2023-08-15T01:28:31.882Z,4.80
2023-08-15T01:31:18.292Z,4.60
2023-08-15T01:34:10.197Z,4.90
2023-08-15T01:36:42.648Z,4.50
2023-08-15T01:39:10.949Z,4.73
2023-08-15T01:41:40.959Z,4.97
2023-08-15T01:44:10.055Z,5.10
2023-08-15T01:46:37.231Z,4.83
2023-08-15T01:49:04.111Z,5.27
2023-08-15T01:51:30.831Z,4.67
2023-08-15T01:53:57.590Z,4.70
2023-08-15T01:56:25.405Z,4.43
2023-08-15T01:58:52.229Z,4.30
2023-08-15T02:01:18.990Z,4.33
2023-08-15T02:03:45.734Z,5.00
2023-08-15T02:06:12.546Z,5.50
2023-08-15T02:08:39.375Z,4.80
2023-08-15T02:11:06.117Z,4.30
2023-08-15T02:13:34.925Z,4.67
2023-08-15T02:16:02.360Z,4.10
2023-08-15T02:18:33.190Z,4.17
2023-08-15T02:20:59.969Z,4.57
2023-08-15T02:23:26.885Z,4.60
2023-08-15T02:25:53.597Z,4.80
2023-08-15T02:28:20.332Z,4.87
2023-08-15T02:30:47.118Z,5.00
2023-08-15T02:33:13.840Z,4.57
2023-08-15T02:35:42.646Z,4.50
2023-08-15T02:38:09.515Z,4.67
2023-08-15T02:40:36.300Z,4.03
2023-08-15T02:43:03.092Z,4.83
2023-08-15T02:45:29.851Z,4.87
2023-08-15T02:47:56.601Z,4.90
2023-08-15T02:50:23.415Z,4.10
2023-08-15T02:52:50.135Z,4.10
2023-08-15T02:55:16.994Z,4.90
2023-08-15T02:57:43.763Z,3.90
2023-08-15T03:00:10.887Z,3.63
2023-08-15T03:02:37.834Z,3.90
2023-08-15T03:05:05.014Z,3.90
2023-08-15T03:07:31.690Z,3.97
2023-08-15T03:09:58.414Z,4.40
2023-08-15T03:12:25.357Z,3.87
2023-08-15T03:14:52.198Z,3.67
2023-08-15T03:17:20.395Z,3.90
2023-08-15T03:19:47.467Z,3.67
2023-08-15T03:22:14.205Z,3.87
2023-08-15T03:24:40.969Z,4.17
2023-08-15T03:27:07.665Z,3.37
2023-08-15T03:29:35.991Z,3.60
2023-08-15T03:32:02.821Z,3.70
2023-08-15T03:34:29.559Z,3.83
2023-08-15T03:36:57.340Z,3.73
2023-08-15T03:39:24.328Z,3.43
2023-08-15T03:41:54.188Z,4.00
2023-08-15T03:44:20.919Z,4.23
2023-08-15T03:46:48.572Z,4.00
2023-08-15T03:49:15.385Z,3.60
2023-08-15T03:51:47.073Z,3.90
2023-08-15T03:54:14.420Z,3.40
2023-08-15T03:56:41.205Z,4.00
2023-08-15T03:59:08.317Z,3.30
2023-08-15T04:01:35.382Z,3.57
2023-08-15T04:04:02.540Z,3.60
2023-08-15T04:06:29.308Z,3.40
2023-08-15T04:08:56.049Z,4.90
2023-08-15T04:11:22.839Z,4.10
2023-08-15T04:13:49.620Z,4.00
2023-08-15T04:16:16.740Z,3.67
2023-08-15T04:18:43.487Z,3.90
2023-08-15T04:21:12.596Z,3.63
2023-08-15T04:23:39.444Z,3.50
2023-08-15T04:26:07.490Z,3.70
2023-08-15T04:28:34.232Z,3.70
2023-08-15T04:31:00.953Z,4.30
2023-08-15T04:33:27.948Z,3.20
2023-08-15T04:35:54.681Z,3.60
2023-08-15T04:38:21.814Z,2.80
2023-08-15T04:40:48.655Z,3.87
2023-08-15T04:43:16.454Z,3.60
2023-08-15T04:45:45.245Z,3.60
2023-08-15T04:48:13.698Z,4.03
2023-08-15T04:50:40.761Z,3.60
2023-08-15T04:53:08.230Z,3.00
2023-08-15T04:55:38.602Z,3.40
2023-08-15T04:58:05.519Z,3.20
2023-08-15T05:00:35.132Z,3.27
2023-08-15T05:03:02.784Z,3.30
2023-08-15T05:05:29.571Z,3.40
2023-08-15T05:07:56.479Z,3.33
2023-08-15T05:10:23.447Z,3.70
2023-08-15T05:12:50.224Z,3.30
2023-08-15T05:15:17.015Z,3.03
2023-08-15T05:17:45.072Z,3.63
2023-08-15T05:20:13.137Z,3.27
2023-08-15T05:22:39.934Z,3.20
2023-08-15T05:25:07.326Z,3.37
2023-08-15T05:27:34.112Z,3.10
2023-08-15T05:30:00.842Z,3.73
2023-08-15T05:32:27.603Z,3.40
2023-08-15T05:34:54.398Z,3.43
2023-08-15T05:37:21.405Z,3.17
2023-08-15T05:39:48.527Z,3.30
2023-08-15T05:42:18.899Z,3.33
2023-08-15T05:44:49.868Z,3.00
2023-08-15T05:47:16.732Z,2.50
2023-08-15T05:49:46.355Z,3.03
2023-08-15T05:52:13.174Z,2.60
2023-08-15T05:54:40.144Z,3.00
2023-08-15T05:57:06.936Z,3.10
2023-08-15T05:59:33.637Z,3.17
2023-08-15T06:02:00.622Z,3.03
2023-08-15T06:04:27.622Z,3.30
2023-08-15T06:06:54.485Z,2.70
2023-08-15T06:09:21.321Z,2.43
2023-08-15T06:11:48.054Z,3.00
2023-08-15T06:14:14.744Z,3.00
2023-08-15T06:16:41.515Z,2.53
2023-08-15T06:19:08.360Z,3.00
2023-08-15T06:21:35.116Z,3.20
2023-08-15T06:24:02.139Z,2.73
2023-08-15T06:26:28.891Z,3.00
2023-08-15T06:28:55.583Z,2.50
2023-08-15T06:31:22.415Z,3.03
2023-08-15T06:33:49.154Z,2.67
2023-08-15T06:36:15.841Z,2.53
2023-08-15T06:38:42.534Z,2.80
2023-08-15T06:41:09.251Z,2.67
2023-08-15T06:43:35.935Z,2.63
2023-08-15T06:46:02.687Z,2.97
2023-08-15T06:48:29.424Z,2.57
2023-08-15T06:50:56.401Z,2.53
2023-08-15T06:53:23.325Z,2.50
2023-08-15T06:55:50.900Z,2.90
2023-08-15T06:58:18.539Z,2.53
2023-08-15T07:00:45.561Z,2.57
2023-08-15T07:03:13.722Z,3.00
2023-08-15T07:05:40.534Z,2.87
2023-08-15T07:08:07.743Z,2.37
2023-08-15T07:10:35.694Z,2.30
2023-08-15T07:13:03.415Z,2.60
2023-08-15T07:15:30.736Z,3.03
2023-08-15T07:17:57.621Z,2.80
2023-08-15T07:20:25.256Z,2.50
2023-08-15T07:22:52.243Z,2.40
2023-08-15T07:25:19.146Z,2.77
2023-08-15T07:27:46.004Z,2.70
2023-08-15T07:30:13.675Z,2.87
2023-08-15T07:32:40.837Z,2.93
2023-08-15T07:35:08.835Z,2.80
2023-08-15T07:37:35.755Z,2.73
2023-08-15T07:40:09.124Z,2.87
2023-08-15T07:42:36.060Z,3.20
2023-08-15T07:45:03.925Z,3.00
2023-08-15T07:47:35.169Z,2.60
2023-08-15T07:50:19.821Z,2.47
2023-08-15T07:52:46.678Z,2.77
2023-08-15T07:55:13.840Z,2.53
2023-08-15T07:57:40.999Z,3.07
2023-08-15T08:00:09.424Z,3.07
2023-08-15T08:02:36.190Z,2.87
2023-08-15T08:05:04.226Z,3.17
2023-08-15T08:07:32.238Z,3.10
2023-08-15T08:10:00.419Z,3.80
2023-08-15T08:12:28.078Z,3.17
2023-08-15T08:14:57.947Z,2.60
2023-08-15T08:17:25.157Z,3.33
2023-08-15T08:19:52.300Z,2.90
2023-08-15T08:22:19.535Z,2.90
2023-08-15T08:24:49.002Z,2.90
2023-08-15T08:27:15.757Z,3.63
2023-08-15T08:29:42.586Z,3.27
2023-08-15T08:32:09.353Z,3.40
2023-08-15T08:34:36.522Z,3.90
2023-08-15T08:37:03.330Z,4.40
2023-08-15T08:39:32.466Z,3.73
2023-08-15T08:42:00.276Z,3.30
2023-08-15T08:44:29.713Z,3.23
2023-08-15T08:46:57.204Z,3.60
2023-08-15T08:49:27.688Z,3.53
2023-08-15T08:51:57.216Z,3.20
2023-08-15T08:54:40.814Z,3.20
2023-08-15T08:57:12.658Z,3.67
2023-08-15T08:59:43.540Z,3.97
2023-08-15T09:02:12.811Z,3.80
2023-08-15T09:04:39.893Z,3.13
2023-08-15T09:07:06.653Z,3.70
2023-08-15T09:09:33.783Z,3.67
2023-08-15T09:12:00.545Z,3.80
2023-08-15T09:14:27.248Z,3.70
2023-08-15T09:16:54.057Z,4.50
2023-08-15T09:19:20.770Z,4.10
2023-08-15T09:21:47.588Z,3.83
2023-08-15T09:24:14.280Z,3.50
2023-08-15T09:26:41.198Z,3.93
2023-08-15T09:29:07.932Z,3.83
2023-08-15T09:31:35.717Z,3.87
2023-08-15T09:34:10.563Z,3.87
2023-08-15T09:36:37.314Z,3.77
2023-08-15T09:39:09.474Z,3.97
2023-08-15T09:41:41.165Z,3.97
2023-08-15T09:44:07.876Z,4.03
2023-08-15T09:46:34.873Z,4.00
2023-08-15T09:49:02.013Z,4.10
2023-08-15T09:51:29.814Z,3.77
2023-08-15T09:53:59.065Z,4.00
2023-08-15T09:56:25.808Z,4.00
2023-08-15T09:58:52.708Z,3.97
2023-08-15T10:01:24.642Z,4.00
2023-08-15T10:03:52.715Z,4.20
2023-08-15T10:06:20.524Z,4.00
2023-08-15T10:08:47.937Z,3.60
2023-08-15T10:11:16.579Z,4.07
2023-08-15T10:13:45.148Z,3.80
2023-08-15T10:16:13.972Z,3.93
2023-08-15T10:18:57.786Z,3.87
2023-08-15T10:21:24.797Z,4.13
2023-08-15T10:23:53.974Z,3.90
2023-08-15T10:26:20.969Z,3.60
2023-08-15T10:28:48.798Z,4.23
2023-08-15T10:31:36.216Z,3.93
2023-08-15T10:34:09.773Z,4.00
2023-08-15T10:36:37.514Z,3.97
2023-08-15T10:39:06.767Z,4.43
2023-08-15T10:41:38.057Z,3.90
2023-08-15T10:44:09.368Z,4.37
2023-08-15T10:46:37.453Z,4.37
2023-08-15T10:49:11.544Z,4.10
2023-08-15T10:51:40.280Z,4.23
2023-08-15T10:54:12.562Z,5.20
2023-08-15T10:56:41.687Z,4.00
2023-08-15T10:59:16.545Z,4.50
2023-08-15T11:01:46.623Z,4.07
2023-08-15T11:04:24.152Z,4.90
2023-08-15T11:06:54.672Z,3.97
2023-08-15T11:09:28.832Z,4.30
2023-08-15T11:12:03.086Z,4.40
2023-08-15T11:14:29.748Z,3.67
2023-08-15T11:16:57.671Z,3.80
2023-08-15T11:19:24.725Z,3.90
2023-08-15T11:21:51.542Z,4.33
2023-08-15T11:24:20.871Z,3.60
2023-08-15T11:26:49.057Z,3.63
2023-08-15T11:29:15.921Z,3.73
2023-08-15T11:31:43.209Z,4.03
2023-08-15T11:34:12.239Z,4.20
2023-08-15T11:36:39.378Z,3.40
2023-08-15T11:39:06.199Z,4.10
2023-08-15T11:41:36.388Z,3.80
2023-08-15T11:44:04.687Z,4.60
2023-08-15T11:46:51.295Z,4.13
2023-08-15T11:49:22.005Z,3.70
2023-08-15T11:51:48.791Z,3.77
2023-08-15T11:54:15.832Z,3.60
2023-08-15T11:56:53.268Z,4.00
2023-08-15T11:59:20.504Z,3.70
2023-08-15T12:01:49.018Z,4.20
2023-08-15T12:04:17.368Z,4.20
2023-08-15T12:06:44.156Z,3.90
2023-08-15T12:09:13.273Z,4.10
2023-08-15T12:11:40.138Z,3.60
2023-08-15T12:14:06.871Z,3.80
2023-08-15T12:16:33.600Z,3.17
2023-08-15T12:19:00.302Z,3.83
2023-08-15T12:21:27.093Z,4.00
2023-08-15T12:23:53.770Z,3.63
2023-08-15T12:26:20.590Z,3.50
2023-08-15T12:28:47.264Z,4.50
2023-08-15T12:31:14.192Z,3.60
2023-08-15T12:33:46.788Z,4.33
2023-08-15T12:36:14.378Z,4.00
2023-08-15T12:38:41.101Z,4.50
2023-08-15T12:41:09.930Z,4.00
2023-08-15T12:43:36.923Z,4.17
2023-08-15T12:46:03.887Z,4.37
2023-08-15T12:48:30.711Z,4.87
2023-08-15T12:50:57.375Z,5.20
2023-08-15T12:53:24.477Z,4.73
2023-08-15T12:55:51.509Z,4.30
2023-08-15T12:58:18.287Z,3.20
2023-08-15T13:00:45.173Z,3.13
2023-08-15T13:03:12.259Z,2.80
2023-08-15T13:05:39.072Z,3.13
2023-08-15T13:08:06.420Z,3.90
2023-08-15T13:10:33.306Z,3.97
2023-08-15T13:12:59.992Z,4.90
2023-08-15T13:15:26.992Z,4.83
2023-08-15T13:17:55.546Z,5.90
2023-08-15T13:20:22.439Z,6.33
2023-08-15T13:22:49.500Z,5.00
2023-08-15T13:25:16.259Z,6.63
2023-08-15T13:27:42.954Z,5.00
2023-08-15T13:30:09.805Z,5.03
2023-08-15T13:32:36.594Z,5.50
2023-08-15T13:35:03.896Z,6.30
2023-08-15T13:37:30.603Z,5.33
2023-08-15T13:39:58.561Z,5.40
2023-08-15T13:42:36.310Z,4.40
2023-08-15T13:45:06.801Z,4.57
2023-08-15T13:47:35.972Z,4.17
2023-08-15T13:50:02.837Z,4.40
2023-08-15T13:52:29.729Z,4.37
2023-08-15T13:54:56.421Z,4.13
2023-08-15T13:57:23.312Z,4.40
2023-08-15T13:59:50.715Z,4.33
2023-08-15T14:02:17.612Z,3.90
2023-08-15T14:04:44.433Z,4.03
2023-08-15T14:07:11.228Z,4.00
2023-08-15T14:09:38.060Z,4.70
2023-08-15T14:12:05.005Z,4.93
2023-08-15T14:14:31.829Z,4.20
2023-08-15T14:16:58.577Z,4.40
2023-08-15T14:19:25.401Z,4.10
2023-08-15T14:21:52.153Z,4.30
2023-08-15T14:24:19.213Z,4.07
2023-08-15T14:26:45.917Z,4.60
2023-08-15T14:29:13.423Z,4.00
2023-08-15T14:31:40.235Z,3.97
2023-08-15T14:34:07.012Z,4.10
2023-08-15T14:36:33.756Z,4.50
2023-08-15T14:39:00.508Z,4.03
2023-08-15T14:41:27.184Z,4.47
2023-08-15T14:43:54.085Z,3.87
2023-08-15T14:46:20.852Z,5.10
2023-08-15T14:48:48.113Z,5.37
2023-08-15T14:51:14.837Z,4.67
2023-08-15T14:53:41.610Z,4.90
2023-08-15T14:56:08.300Z,5.23
2023-08-15T14:58:35.083Z,6.40
2023-08-15T15:01:01.929Z,5.63
2023-08-15T15:03:28.729Z,5.07
2023-08-15T15:05:55.561Z,5.20
2023-08-15T15:08:22.834Z,5.47
2023-08-15T15:10:53.998Z,4.60
2023-08-15T15:13:20.727Z,5.33
2023-08-15T15:15:54.153Z,5.27
2023-08-15T15:18:22.712Z,4.47
2023-08-15T15:20:50.067Z,4.37
2023-08-15T15:23:17.363Z,5.33
2023-08-15T15:25:50.348Z,5.47
2023-08-15T15:28:17.035Z,5.80
2023-08-15T15:30:43.730Z,5.00
2023-08-15T15:33:10.435Z,5.47
2023-08-15T15:35:37.236Z,5.83
2023-08-15T15:38:04.424Z,6.70
2023-08-15T15:40:31.158Z,5.20
2023-08-15T15:42:57.936Z,6.20
2023-08-15T15:45:24.798Z,5.73
2023-08-15T15:47:51.644Z,5.90
2023-08-15T15:50:21.005Z,6.20
2023-08-15T15:52:48.176Z,5.53
2023-08-15T15:55:19.977Z,5.00
2023-08-15T15:57:46.767Z,5.20
2023-08-15T16:00:16.940Z,5.43
2023-08-15T16:02:44.356Z,5.30
2023-08-15T16:05:14.824Z,4.50
2023-08-15T16:07:42.019Z,5.00
2023-08-15T16:10:10.368Z,4.80
2023-08-15T16:12:37.380Z,5.20
2023-08-15T16:15:04.485Z,5.23
2023-08-15T16:17:32.457Z,5.53
2023-08-15T16:19:59.489Z,6.07
2023-08-15T16:22:26.157Z,5.80
2023-08-15T16:24:53.006Z,5.57
2023-08-15T16:27:20.446Z,4.70
2023-08-15T16:29:47.670Z,6.90
2023-08-15T16:32:16.893Z,5.80
2023-08-15T16:34:43.922Z,5.53
2023-08-15T16:37:10.626Z,6.03
2023-08-15T16:39:37.348Z,6.40
2023-08-15T16:42:04.366Z,6.03
2023-08-15T16:44:31.025Z,5.43
2023-08-15T16:46:57.801Z,5.07
2023-08-15T16:49:25.222Z,6.03
2023-08-15T16:51:51.937Z,5.27
2023-08-15T16:54:18.747Z,6.77
2023-08-15T16:56:45.509Z,5.40
2023-08-15T16:59:12.264Z,5.63
2023-08-15T17:01:39.017Z,6.20
2023-08-15T17:04:06.104Z,6.90
2023-08-15T17:06:32.966Z,5.17
2023-08-15T17:08:59.712Z,6.93
2023-08-15T17:11:26.488Z,6.83
2023-08-15T17:13:53.377Z,6.50
2023-08-15T17:16:20.111Z,5.70
2023-08-15T17:18:46.865Z,5.33
2023-08-15T17:21:13.589Z,5.90
2023-08-15T17:23:40.355Z,5.90
2023-08-15T17:26:07.248Z,5.67
2023-08-15T17:28:33.990Z,6.00
2023-08-15T17:31:01.048Z,5.80
2023-08-15T17:33:28.065Z,4.90
2023-08-15T17:35:54.835Z,4.90
2023-08-15T17:38:21.535Z,4.40
2023-08-15T17:40:48.240Z,5.60
2023-08-15T17:43:14.919Z,5.20
2023-08-15T17:45:42.080Z,5.17
2023-08-15T17:48:09.721Z,4.83
2023-08-15T17:50:36.679Z,5.10
2023-08-15T17:53:03.482Z,4.83
2023-08-15T17:55:30.276Z,4.90
2023-08-15T17:57:56.956Z,4.20
2023-08-15T18:00:23.995Z,4.20
2023-08-15T18:02:50.815Z,4.20
2023-08-15T18:05:17.649Z,4.30
2023-08-15T18:07:44.378Z,4.20
2023-08-15T18:10:11.260Z,4.57
2023-08-15T18:12:39.097Z,4.00
2023-08-15T18:15:06.356Z,4.03
2023-08-15T18:17:33.056Z,3.30
2023-08-15T18:20:01.589Z,4.10
2023-08-15T18:22:28.457Z,3.90
2023-08-15T18:24:55.285Z,3.57
2023-08-15T18:27:22.014Z,4.17
2023-08-15T18:29:48.907Z,4.47
2023-08-15T18:32:15.647Z,3.40
2023-08-15T18:34:42.375Z,3.40
2023-08-15T18:37:09.061Z,3.97
2023-08-15T18:39:35.761Z,3.63
2023-08-15T18:42:02.789Z,3.60
2023-08-15T18:44:29.508Z,2.97
2023-08-15T18:46:56.615Z,3.40
2023-08-15T18:49:23.606Z,3.93
2023-08-15T18:51:50.320Z,3.77
2023-08-15T18:54:17.026Z,3.70
2023-08-15T18:56:43.709Z,4.43
2023-08-15T18:59:10.410Z,3.63
2023-08-15T19:01:37.210Z,4.20
2023-08-15T19:04:04.687Z,3.97
2023-08-15T19:06:31.366Z,3.63
2023-08-15T19:08:58.141Z,3.80
2023-08-15T19:11:24.895Z,3.70
2023-08-15T19:13:51.574Z,3.90
2023-08-15T19:16:18.323Z,3.40
2023-08-15T19:18:45.057Z,3.80
2023-08-15T19:21:12.810Z,4.20
2023-08-15T19:23:39.583Z,3.57
2023-08-15T19:26:06.572Z,3.60
2023-08-15T19:28:33.426Z,3.80
2023-08-15T19:31:00.216Z,4.03
2023-08-15T19:33:26.982Z,3.43
2023-08-15T19:35:54.193Z,3.90
2023-08-15T19:38:20.888Z,3.97
2023-08-15T19:40:48.119Z,3.60
2023-08-15T19:43:14.933Z,3.40
2023-08-15T19:45:41.765Z,2.90
2023-08-15T19:48:08.764Z,3.63
2023-08-15T19:50:35.868Z,3.90
2023-08-15T19:53:02.590Z,4.10
2023-08-15T19:55:31.215Z,4.10
2023-08-15T19:57:59.449Z,3.40
2023-08-15T20:00:26.346Z,3.90
2023-08-15T20:02:53.255Z,3.90
2023-08-15T20:05:20.080Z,3.90
2023-08-15T20:07:46.896Z,4.20
2023-08-15T20:10:15.191Z,3.93
2023-08-15T20:12:41.938Z,3.80
2023-08-15T20:15:09.401Z,4.43
2023-08-15T20:17:36.309Z,3.73
2023-08-15T20:20:03.305Z,3.80
2023-08-15T20:22:31.620Z,4.03
2023-08-15T20:24:58.475Z,4.13
2023-08-15T20:27:25.396Z,4.27
2023-08-15T20:29:57.268Z,4.17
2023-08-15T20:32:25.174Z,3.40
2023-08-15T20:34:52.298Z,3.43
2023-08-15T20:37:19.086Z,3.00
2023-08-15T20:39:45.815Z,3.10
2023-08-15T20:42:12.865Z,3.90
2023-08-15T20:44:39.569Z,3.27
2023-08-15T20:47:06.406Z,3.27
2023-08-15T20:49:33.079Z,4.23
2023-08-15T20:52:01.592Z,3.57
2023-08-15T20:54:29.397Z,3.33
2023-08-15T20:56:56.120Z,4.00
2023-08-15T20:59:22.812Z,3.30
2023-08-15T21:01:49.506Z,3.17
2023-08-15T21:04:17.157Z,3.43
2023-08-15T21:06:43.876Z,3.83
2023-08-15T21:09:11.773Z,3.63
2023-08-15T21:11:38.456Z,3.37
2023-08-15T21:14:05.264Z,3.57
2023-08-15T21:16:32.059Z,2.90
2023-08-15T21:18:59.260Z,3.10
2023-08-15T21:21:26.196Z,3.03
2023-08-15T21:23:52.944Z,3.30
2023-08-15T21:26:19.642Z,3.50
2023-08-15T21:28:46.315Z,3.40
2023-08-15T21:31:13.072Z,3.27
2023-08-15T21:33:39.912Z,3.83
2023-08-15T21:36:06.978Z,3.60
2023-08-15T21:38:33.717Z,3.13
2023-08-15T21:41:00.476Z,3.10
2023-08-15T21:43:27.225Z,3.30
2023-08-15T21:45:53.970Z,3.10
2023-08-15T21:48:20.964Z,3.43
2023-08-15T21:50:47.658Z,3.00
2023-08-15T21:53:14.398Z,3.17
2023-08-15T21:55:41.202Z,3.00
2023-08-15T21:58:07.886Z,3.87
2023-08-15T22:00:34.554Z,3.30
2023-08-15T22:03:01.738Z,3.20
2023-08-15T22:05:29.262Z,4.00
2023-08-15T22:07:56.109Z,3.57
2023-08-15T22:10:23.585Z,4.00
2023-08-15T22:12:51.100Z,3.30
2023-08-15T22:15:18.961Z,3.77
2023-08-15T22:17:50.506Z,3.80
2023-08-15T22:20:21.861Z,3.70
2023-08-15T22:22:48.668Z,4.40
2023-08-15T22:25:18.415Z,3.63
2023-08-15T22:27:45.912Z,4.07
2023-08-15T22:30:13.503Z,4.07
2023-08-15T22:32:40.619Z,3.10
2023-08-15T22:35:08.142Z,3.73
2023-08-15T22:37:34.986Z,3.57
2023-08-15T22:40:04.702Z,3.90
2023-08-15T22:42:32.194Z,3.73
2023-08-15T22:44:59.013Z,4.07
2023-08-15T22:47:25.863Z,3.33
2023-08-15T22:49:52.875Z,4.60
2023-08-15T22:52:19.560Z,4.47
2023-08-15T22:54:46.294Z,4.80
2023-08-15T22:57:15.595Z,4.70
2023-08-15T22:59:45.313Z,4.00
2023-08-15T23:02:12.170Z,3.40
2023-08-15T23:04:38.950Z,5.10
2023-08-15T23:07:05.713Z,4.93
2023-08-15T23:09:32.515Z,4.90
2023-08-15T23:11:59.236Z,5.57
2023-08-15T23:14:25.997Z,5.27
2023-08-15T23:16:53.004Z,4.63
2023-08-15T23:19:19.782Z,4.60
2023-08-15T23:21:46.470Z,4.93
2023-08-15T23:24:13.710Z,4.70
2023-08-15T23:26:40.448Z,4.63
2023-08-15T23:29:07.213Z,4.57
2023-08-15T23:31:40.676Z,5.77
2023-08-15T23:34:07.730Z,4.63
2023-08-15T23:36:34.822Z,4.97
2023-08-15T23:39:02.540Z,5.10
2023-08-15T23:41:29.482Z,5.40
2023-08-15T23:43:56.263Z,4.60
2023-08-15T23:46:24.381Z,4.67
2023-08-15T23:48:52.312Z,4.67
2023-08-15T23:51:19.260Z,4.90
2023-08-15T23:53:48.350Z,4.20
2023-08-15T23:56:16.134Z,4.73
2023-08-15T23:58:43.299Z,5.27
